CheckWX is a tool to help pilots better visualize weather data.  It is not intended as a substitute for an official pre-flight weather briefing.

20:41:30 UTC

CYRL TAF
Red Lake Airport
Red Lake, Canada
TAF CYRL 221938Z 2220/2302 VRB03KT P6SM SKC BECMG 2220/2222 20007KT RMK NXT FCST WILL BE ISSUED AT 231045Z

Mar-22@
20:00 UTC

Mar-22 @ 20:00 UTC

Mar-23@
02:00 UTC

Mar-23 @ 02:00 UTC

TAF CYRL 221938Z 2220/2302 VRB03KT P6SM SKC
Wind
  • Variable at 3 KTS
Cloud Levels
  • Clear skies

Mar-22@
20:00 UTC

Mar-22 @ 20:00 UTC

Mar-23@
02:00 UTC

Mar-23 @ 02:00 UTC

BECMG 2220/2222 20007KT RMK NXT FCST WILL BE ISSUED AT 231045Z

Becoming

Becoming Conditions expected by Fri, Mar 22, 2019 @ 22:00 UTC

Wind
  • 200° at 7 KTS
Cloud Levels
  • Clear skies